Armstrong, Canada
Current Conditions -  °F | °C
As of 5:00 PM on Monday 26 Jan 2015 (Local Time) from CYLW Reporting Station
Light Rain Light Rain  
Wind Chill: 27°   Ceiling: 100
Heat Index: 34°   Visibility: 0.12mi
Dew Point: 34°   Wind: 8mph
Humidity: 100%   Direction: 360°N
Pressure: 29.97"   Gusts: NA
Location:  50.45°N, 119.2°W
Report Text: CYLW 270100Z AUTO 36007KT 1/8SM -RA FG BKN001 01/01 A2997 RMK SLP167
Loading
Personal Weather Stations






























Interactive Weather Map New forecast layout! Learn more

10-Day Weather Forecast

Advertisements
Track Severe Weather on mobile